Terminal Aerodrome Forecast
Issued by NWS

Home | Current Version | Previous Version | Graphics & Text | Print | Product List | Glossary Off
Versions: 1 2 3 4 5 6 7 8 9 10 11 12 13 14

807
FTUS41 KCLE 291720
TAFFDY
TAF
KFDY 291720Z 2918/3018 06012G20KT 5SM BR VCSH OVC035
     FM292000 06015G25KT P6SM OVC040
     FM300400 09013KT P6SM OVC010
     FM301600 20015G25KT P6SM OVC035=

USA.gov is the U.S. government's official web portal to all federal, state and local government web resources and services.